Time;durP1;ratioP1;P1;durP2;ratioP2;P2;SDS_P1;SDS_P2;PMS_P1;PMS_P2;Temp;Humidity;BMP_temperature;BMP_pressure;BME280_temperature;BME280_humidity;BME280_pressure;Samples;Min_cycle;Max_cycle;Signal;HPM_P1;HPM_P2
2023/09/11 00:04:34;;;;;;;1999.90;999.90;;;;;;;22.53;100.00;101324.81;10456871;28;20060;-69
2023/09/11 00:09:36;;;;;;;1999.90;999.90;;;;;;;22.55;100.00;101314.81;10457451;28;20056;-69
2023/09/11 00:14:38;;;;;;;1999.90;999.90;;;;;;;22.66;100.00;101307.56;10456320;28;20521;-69
2023/09/11 00:19:41;;;;;;;1999.90;999.90;;;;;;;22.18;100.00;101315.78;10455437;28;20052;-69
2023/09/11 00:24:43;;;;;;;1999.90;999.90;;;;;;;21.75;100.00;101322.63;10457097;28;20049;-69
2023/09/11 00:29:45;;;;;;;1999.90;999.90;;;;;;;21.87;100.00;101316.13;10456927;28;20063;-69
2023/09/11 00:34:48;;;;;;;1999.90;999.90;;;;;;;22.03;100.00;101310.13;10456159;28;20049;-69
2023/09/11 00:39:50;;;;;;;1999.90;999.90;;;;;;;21.59;100.00;101311.81;10455539;28;20071;-69
2023/09/11 00:44:53;;;;;;;1999.90;999.90;;;;;;;21.54;100.00;101309.56;10454797;28;20048;-69
2023/09/11 00:49:58;;;;;;;1999.90;999.90;;;;;;;21.59;100.00;101307.31;10456439;28;20165;-70
2023/09/11 00:55:00;;;;;;;1999.90;999.90;;;;;;;21.83;100.00;101303.25;10454651;28;20131;-69
2023/09/11 01:00:04;;;;;;;1999.90;999.90;;;;;;;21.66;100.00;101299.56;10455155;28;20124;-69
2023/09/11 01:05:08;;;;;;;1999.90;999.90;;;;;;;22.26;100.00;101283.88;10455115;28;20053;-69
2023/09/11 01:10:10;;;;;;;1999.90;999.90;;;;;;;22.44;100.00;101272.38;10454267;28;20136;-69
2023/09/11 01:15:13;;;;;;;1999.90;999.90;;;;;;;22.27;100.00;101280.22;10456030;28;20055;-69
2023/09/11 01:20:38;;;;;;;1999.90;999.90;;;;;;;22.51;100.00;101276.13;10455949;28;20045;-70
2023/09/11 01:26:17;;;;;;;1999.90;999.90;;;;;;;22.66;100.00;101271.03;10455905;28;20472;-69
2023/09/11 01:31:20;;;;;;;1999.90;999.90;;;;;;;22.57;100.00;101263.97;10462816;28;20402;-69
2023/09/11 01:36:23;;;;;;;1999.90;999.90;;;;;;;22.42;100.00;101274.34;10462182;28;20056;-70
2023/09/11 01:41:30;;;;;;;1999.90;999.90;;;;;;;22.37;100.00;101265.97;10461363;28;20572;-69
2023/09/11 01:46:33;;;;;;;1999.90;999.90;;;;;;;22.39;100.00;101266.66;10461836;28;20114;-70
2023/09/11 01:51:37;;;;;;;1999.90;999.90;;;;;;;22.03;100.00;101275.47;10461605;28;20049;-69
2023/09/11 01:56:39;;;;;;;1999.90;999.90;;;;;;;22.04;100.00;101274.50;10460944;28;20049;-69
2023/09/11 02:01:44;;;;;;;1999.90;999.90;;;;;;;21.90;100.00;101269.66;10460367;28;20056;-69
2023/09/11 02:06:47;;;;;;;1999.90;999.90;;;;;;;21.71;100.00;101266.16;10462191;28;20076;-69
2023/09/11 02:11:50;;;;;;;1999.90;999.90;;;;;;;21.68;100.00;101270.94;10461897;28;20041;-70
2023/09/11 02:16:52;;;;;;;1999.90;999.90;;;;;;;21.57;100.00;101265.81;10461934;28;20056;-70
2023/09/11 02:21:55;;;;;;;1999.90;999.90;;;;;;;21.51;100.00;101260.09;10461631;28;20045;-70
2023/09/11 02:26:57;;;;;;;1999.90;999.90;;;;;;;21.23;100.00;101255.72;10461357;28;20059;-70
2023/09/11 02:32:00;;;;;;;1999.90;999.90;;;;;;;21.18;100.00;101249.97;10460028;28;20049;-70
2023/09/11 02:37:03;;;;;;;1999.90;999.90;;;;;;;21.17;100.00;101254.47;10460668;28;20045;-70
2023/09/11 02:42:05;;;;;;;1999.90;999.90;;;;;;;21.06;100.00;101265.31;10460302;28;20375;-70
2023/09/11 02:47:08;;;;;;;1999.90;999.90;;;;;;;20.89;100.00;101253.59;10460623;28;20052;-70
2023/09/11 02:52:10;;;;;;;1999.90;999.90;;;;;;;20.97;100.00;101251.88;10459196;28;20140;-70
2023/09/11 02:57:13;;;;;;;1999.90;999.90;;;;;;;21.09;100.00;101239.22;10460209;28;20049;-70
2023/09/11 03:02:15;;;;;;;1999.90;999.90;;;;;;;20.91;100.00;101246.28;10459579;28;20052;-70
2023/09/11 03:07:17;;;;;;;1999.90;999.90;;;;;;;20.85;100.00;101241.56;10458043;28;20486;-70
2023/09/11 03:12:20;;;;;;;1999.90;999.90;;;;;;;20.72;100.00;101236.53;10457743;28;20067;-69
2023/09/11 03:17:22;;;;;;;1999.90;999.90;;;;;;;20.68;100.00;101227.16;10459410;28;20176;-70
2023/09/11 03:22:25;;;;;;;1999.90;999.90;;;;;;;20.75;100.00;101226.44;10459242;28;20140;-70
2023/09/11 03:27:27;;;;;;;1999.90;999.90;;;;;;;20.49;100.00;101222.69;10457912;28;20055;-70
2023/09/11 03:32:29;;;;;;;1999.90;999.90;;;;;;;20.53;100.00;101221.44;10457519;28;20049;-70
2023/09/11 03:37:32;;;;;;;1999.90;999.90;;;;;;;20.66;100.00;101215.81;10456845;28;20554;-70
2023/09/11 03:42:34;;;;;;;1999.90;999.90;;;;;;;20.45;100.00;101214.16;10457921;28;20482;-70
2023/09/11 03:47:37;;;;;;;1999.90;999.90;;;;;;;20.43;100.00;101208.16;10457619;28;20055;-70
2023/09/11 03:52:39;;;;;;;1999.90;999.90;;;;;;;20.33;100.00;101208.16;10456917;28;20045;-70
2023/09/11 03:57:42;;;;;;;1999.90;999.90;;;;;;;20.29;100.00;101192.63;10457914;28;20052;-70
2023/09/11 04:02:44;;;;;;;1999.90;999.90;;;;;;;20.12;100.00;101191.53;10457134;28;20049;-70
2023/09/11 04:07:47;;;;;;;1999.90;999.90;;;;;;;20.14;100.00;101195.75;10457679;28;20059;-70
2023/09/11 04:12:49;;;;;;;1999.90;999.90;;;;;;;20.15;100.00;101196.56;10457298;28;20055;-70
2023/09/11 04:17:54;;;;;;;1999.90;999.90;;;;;;;20.32;100.00;101187.03;10457273;28;20053;-70
2023/09/11 04:22:57;;;;;;;1999.90;999.90;;;;;;;20.15;100.00;101184.09;10457203;28;20044;-70
2023/09/11 04:27:59;;;;;;;1999.90;999.90;;;;;;;20.06;100.00;101187.63;10456995;28;20052;-70
2023/09/11 04:33:02;;;;;;;1999.90;999.90;;;;;;;19.99;100.00;101186.50;10456223;28;20045;-70
2023/09/11 04:38:05;;;;;;;1999.90;999.90;;;;;;;20.07;100.00;101183.13;10456208;28;20413;-70
2023/09/11 04:43:07;;;;;;;1999.90;999.90;;;;;;;20.07;100.00;101172.50;10456693;28;20045;-70
2023/09/11 04:48:10;;;;;;;1999.90;999.90;;;;;;;19.95;100.00;101174.47;10456578;28;20051;-70
2023/09/11 04:53:12;;;;;;;1999.90;999.90;;;;;;;19.90;100.00;101168.75;10456438;28;20049;-70
2023/09/11 04:58:14;;;;;;;1999.90;999.90;;;;;;;19.91;100.00;101170.44;10455800;28;20052;-70
2023/09/11 05:03:17;;;;;;;1999.90;999.90;;;;;;;19.92;100.00;101175.59;10463423;28;20056;-70
2023/09/11 05:08:19;;;;;;;1999.90;999.90;;;;;;;19.89;100.00;101185.66;10463350;28;20049;-70
2023/09/11 05:13:22;;;;;;;1999.90;999.90;;;;;;;20.06;100.00;101174.34;10463556;28;20077;-70
2023/09/11 05:18:24;;;;;;;1999.90;999.90;;;;;;;20.01;100.00;101184.56;10464223;28;20049;-70
2023/09/11 05:23:26;;;;;;;1999.90;999.90;;;;;;;20.22;100.00;101182.59;10463886;28;20128;-70
2023/09/11 05:28:29;;;;;;;1999.90;999.90;;;;;;;20.08;100.00;101180.34;10463757;28;20052;-70
2023/09/11 05:33:31;;;;;;;1999.90;999.90;;;;;;;20.03;100.00;101179.94;10463451;28;20064;-70
2023/09/11 05:38:34;;;;;;;1999.90;999.90;;;;;;;19.90;100.00;101182.84;10461585;28;20449;-70
2023/09/11 05:43:37;;;;;;;1999.90;999.90;;;;;;;20.13;100.00;101186.06;10462575;28;20481;-70
2023/09/11 05:48:39;;;;;;;1999.90;999.90;;;;;;;20.18;100.00;101183.00;10461797;28;20084;-70
2023/09/11 05:53:42;;;;;;;1999.90;999.90;;;;;;;20.47;100.00;101177.63;10462056;28;20095;-70
2023/09/11 05:58:44;;;;;;;1999.90;999.90;;;;;;;20.71;100.00;101177.19;10461971;28;20063;-70
2023/09/11 06:03:47;;;;;;;1999.90;999.90;;;;;;;20.71;100.00;101184.31;10461740;28;20053;-70
2023/09/11 06:08:49;;;;;;;1999.90;999.90;;;;;;;20.69;100.00;101186.28;10462196;28;20084;-70
2023/09/11 06:13:52;;;;;;;1999.90;999.90;;;;;;;21.01;100.00;101179.72;10460383;28;20084;-69
2023/09/11 06:18:54;;;;;;;1999.90;999.90;;;;;;;21.12;100.00;101179.53;10461733;28;20053;-70
2023/09/11 06:23:57;;;;;;;1999.90;999.90;;;;;;;21.37;100.00;101186.00;10461484;28;20045;-70
2023/09/11 06:28:59;;;;;;;1999.90;999.90;;;;;;;21.44;100.00;101176.41;10443831;28;20089;-70
2023/09/11 06:34:02;;;;;;;1999.90;999.90;;;;;;;21.52;100.00;101178.38;10460309;28;20041;-70
2023/09/11 06:39:05;;;;;;;1999.90;999.90;;;;;;;21.67;100.00;101174.19;10461011;28;20107;-70
2023/09/11 06:44:08;;;;;;;1999.90;999.90;;;;;;;21.60;100.00;101178.44;10460128;28;20482;-70
2023/09/11 06:49:11;;;;;;;1999.90;999.90;;;;;;;21.88;100.00;101173.03;10459973;28;20057;-70
2023/09/11 06:54:13;;;;;;;1999.90;999.90;;;;;;;21.75;100.00;101181.41;10460296;28;20045;-70
2023/09/11 06:59:16;;;;;;;1999.90;999.90;;;;;;;22.14;95.43;101182.91;10459547;28;20406;-70
2023/09/11 07:04:18;;;;;;;1999.90;999.90;;;;;;;22.06;99.92;101181.03;10459274;28;20049;-70
2023/09/11 07:09:21;;;;;;;1999.90;999.90;;;;;;;22.20;96.24;101177.78;10457991;28;20521;-70
2023/09/11 07:14:24;;;;;;;1999.90;999.90;;;;;;;22.31;94.73;101179.44;10459633;28;20049;-70
2023/09/11 07:19:26;;;;;;;1999.90;999.90;;;;;;;22.67;91.00;101173.16;10458772;28;20492;-70
2023/09/11 07:24:29;;;;;;;1999.90;999.90;;;;;;;22.74;91.64;101174.19;10457602;28;20048;-70
2023/09/11 07:29:32;;;;;;;1999.90;999.90;;;;;;;23.50;83.29;101167.13;10457134;28;20433;-70
2023/09/11 07:34:34;;;;;;;1999.90;999.90;;;;;;;23.85;84.95;101168.72;10458592;28;20087;-69
2023/09/11 07:39:36;;;;;;;1999.90;999.90;;;;;;;24.21;84.43;101171.06;10457379;28;20071;-70
2023/09/11 07:44:39;;;;;;;1999.90;999.90;;;;;;;24.57;78.28;101164.50;10456571;28;20482;-70
2023/09/11 07:49:41;;;;;;;1999.90;999.90;;;;;;;24.98;77.04;101167.91;10457067;28;20053;-70
2023/09/11 07:54:44;;;;;;;1999.90;999.90;;;;;;;25.40;76.00;101177.44;10457915;28;20124;-70
2023/09/11 07:59:46;;;;;;;1999.90;999.90;;;;;;;25.60;74.90;101171.59;10457970;28;20045;-70
2023/09/11 08:04:48;;;;;;;1999.90;999.90;;;;;;;25.13;79.91;101180.53;10439418;28;20053;-70
2023/09/11 08:09:52;;;;;;;1999.90;999.90;;;;;;;25.76;77.55;101178.69;10457525;28;20057;-70
2023/09/11 08:14:55;;;;;;;1999.90;999.90;;;;;;;26.61;71.05;101184.84;10457384;28;20049;-70
2023/09/11 08:19:58;;;;;;;1999.90;999.90;;;;;;;27.16;69.71;101177.31;10455423;28;20052;-70
2023/09/11 08:25:00;;;;;;;1999.90;999.90;;;;;;;27.31;67.94;101186.22;10457081;28;20124;-70
2023/09/11 08:30:06;;;;;;;1999.90;999.90;;;;;;;26.93;67.63;101178.28;10456816;28;20052;-70
2023/09/11 08:35:09;;;;;;;1999.90;999.90;;;;;;;27.65;67.47;101181.19;10455945;28;20059;-70
2023/09/11 08:40:11;;;;;;;1999.90;999.90;;;;;;;28.03;65.27;101192.56;10455604;28;20053;-70
2023/09/11 08:45:13;;;;;;;1999.90;999.90;;;;;;;28.49;65.34;101192.06;10455495;28;20051;-70
2023/09/11 08:50:17;;;;;;;1999.90;999.90;;;;;;;29.09;64.88;101197.00;10456568;28;20053;-70
2023/09/11 08:55:20;;;;;;;1999.90;999.90;;;;;;;28.98;63.28;101193.00;10455382;28;20049;-70
2023/09/11 09:00:24;;;;;;;1999.90;999.90;;;;;;;29.47;61.59;101188.41;10454475;28;20053;-71
2023/09/11 09:05:27;;;;;;;1999.90;999.90;;;;;;;28.80;64.52;101188.16;10438451;28;20563;-70
2023/09/11 09:10:30;;;;;;;1999.90;999.90;;;;;;;29.82;61.25;101189.16;10456174;28;20051;-70
2023/09/11 09:15:35;;;;;;;1999.90;999.90;;;;;;;30.88;61.08;101191.94;10455550;28;20382;-70
2023/09/11 09:20:38;;;;;;;1999.90;999.90;;;;;;;29.36;58.13;101194.44;10454972;28;20119;-70
2023/09/11 09:25:41;;;;;;;1999.90;999.90;;;;;;;30.64;59.39;101190.78;10454187;28;20092;-70
2023/09/11 09:30:44;;;;;;;1999.90;999.90;;;;;;;31.15;58.39;101189.16;10455661;28;20048;-70
2023/09/11 09:35:46;;;;;;;1999.90;999.90;;;;;;;31.06;57.42;101185.88;10455640;28;20049;-70
2023/09/11 09:40:50;;;;;;;1999.90;999.90;;;;;;;30.44;58.22;101182.72;10454933;28;20414;-71
2023/09/11 09:45:52;;;;;;;1999.90;999.90;;;;;;;30.37;59.78;101180.84;10454212;28;20052;-71
2023/09/11 09:50:58;;;;;;;1999.90;999.90;;;;;;;32.66;52.50;101178.47;10460934;28;20486;-70
2023/09/11 09:56:04;;;;;;;1999.90;999.90;;;;;;;31.59;54.96;101180.22;10461399;28;20049;-71
2023/09/11 10:01:06;;;;;;;1999.90;999.90;;;;;;;32.13;53.71;101175.22;10460431;28;20128;-71
2023/09/11 10:06:10;;;;;;;1999.90;999.90;;;;;;;32.42;53.23;101164.75;10462118;28;20055;-70
2023/09/11 10:11:27;;;;;;;1999.90;999.90;;;;;;;32.78;51.48;101165.81;10460799;28;20049;-70
2023/09/11 10:16:30;;;;;;;1999.90;999.90;;;;;;;32.76;51.16;101166.03;10467911;22;20045;-72
2023/09/11 10:21:34;;;;;;;1999.90;999.90;;;;;;;32.71;51.58;101174.03;10444209;28;20048;-73
2023/09/11 10:26:50;;;;;;;1999.90;999.90;;;;;;;32.31;51.34;101163.63;10460789;28;20406;-73
2023/09/11 10:31:58;;;;;;;1999.90;999.90;;;;;;;34.27;46.87;101175.16;10442842;28;20122;-72
2023/09/11 10:37:01;;;;;;;1999.90;999.90;;;;;;;31.99;49.57;101165.53;10459332;28;20053;-72
2023/09/11 10:42:03;;;;;;;1999.90;999.90;;;;;;;34.56;45.88;101162.47;10459152;28;20528;-72
2023/09/11 10:47:06;;;;;;;1999.90;999.90;;;;;;;33.65;45.25;101168.19;10460698;28;20152;-73
2023/09/11 10:52:09;;;;;;;1999.90;999.90;;;;;;;33.95;45.92;101159.16;10460366;28;20049;-73
2023/09/11 10:57:13;;;;;;;1999.90;999.90;;;;;;;34.64;44.05;101146.84;10458263;28;20079;-72
2023/09/11 11:02:15;;;;;;;1999.90;999.90;;;;;;;34.67;43.59;101151.81;10458803;28;20049;-73
2023/09/11 11:07:17;;;;;;;1999.90;999.90;;;;;;;34.66;43.85;101150.97;10441500;28;20076;-73
2023/09/11 11:12:34;;;;;;;1999.90;999.90;;;;;;;34.41;44.28;101143.97;10441218;28;20144;-72
2023/09/11 11:17:38;;;;;;;1999.90;999.90;;;;;;;34.86;43.50;101142.44;10458833;28;20063;-73
2023/09/11 11:22:41;;;;;;;1999.90;999.90;;;;;;;34.09;45.11;101148.88;10457346;28;20045;-73
2023/09/11 11:27:45;;;;;;;1999.90;999.90;;;;;;;34.28;45.16;101149.63;10457210;28;20409;-73
2023/09/11 11:32:49;;;;;;;1999.90;999.90;;;;;;;34.38;42.02;101147.16;10456950;28;20405;-73
2023/09/11 11:37:53;;;;;;;1999.90;999.90;;;;;;;35.95;41.43;101148.72;10458022;28;20049;-73
2023/09/11 11:42:55;;;;;;;1999.90;999.90;;;;;;;35.60;39.91;101147.06;10457283;28;20047;-73
2023/09/11 11:47:58;;;;;;;1999.90;999.90;;;;;;;35.84;39.99;101139.59;10457020;28;20098;-73
2023/09/11 11:53:00;;;;;;;1999.90;999.90;;;;;;;36.42;39.87;101139.34;10456798;28;20049;-73
2023/09/11 11:58:08;;;;;;;1999.90;999.90;;;;;;;34.32;42.54;101144.56;10457802;28;20049;-73
2023/09/11 12:03:11;;;;;;;1999.90;999.90;;;;;;;34.48;42.89;101151.97;10457725;28;20041;-73
2023/09/11 12:08:14;;;;;;;1999.90;999.90;;;;;;;35.73;41.35;101145.94;10457110;28;20045;-73
2023/09/11 12:13:19;;;;;;;1999.90;999.90;;;;;;;34.74;42.90;101138.94;10455278;28;20473;-73
2023/09/11 12:18:30;;;;;;;1999.90;999.90;;;;;;;35.45;42.81;101139.44;10455350;28;20084;-73
2023/09/11 12:23:32;;;;;;;1999.90;999.90;;;;;;;33.65;44.24;101141.03;10457079;28;20140;-73
2023/09/11 12:28:35;;;;;;;1999.90;999.90;;;;;;;35.26;44.48;101147.03;10455733;28;20056;-73
2023/09/11 12:33:37;;;;;;;1999.90;999.90;;;;;;;35.88;40.84;101140.72;10455618;28;20133;-73
2023/09/11 12:38:45;;;;;;;1999.90;999.90;;;;;;;34.68;43.69;101143.41;10455541;28;20056;-73
2023/09/11 12:43:48;;;;;;;1999.90;999.90;;;;;;;34.56;45.32;101142.59;10455453;28;20080;-73
2023/09/11 12:48:51;;;;;;;1999.90;999.90;;;;;;;35.29;42.52;101151.13;10454696;28;20049;-73
2023/09/11 12:53:54;;;;;;;1999.90;999.90;;;;;;;34.96;42.67;101144.53;10455676;28;20409;-73
2023/09/11 12:58:57;;;;;;;1999.90;999.90;;;;;;;34.33;45.13;101143.47;10455164;28;20049;-73
2023/09/11 13:03:59;;;;;;;1999.90;999.90;;;;;;;33.37;44.53;101136.25;10455687;28;20477;-73
2023/09/11 13:09:03;;;;;;;1999.90;999.90;;;;;;;33.42;46.17;101144.56;10456143;28;20057;-73
2023/09/11 13:14:05;;;;;;;1999.90;999.90;;;;;;;33.74;45.57;101135.31;10455365;28;20071;-73
2023/09/11 13:19:17;;;;;;;1999.90;999.90;;;;;;;34.94;43.68;101133.06;10455318;28;20057;-73
2023/09/11 13:24:19;;;;;;;1999.90;999.90;;;;;;;33.23;46.08;101140.22;10462980;28;20077;-73
2023/09/11 13:29:22;;;;;;;1999.90;999.90;;;;;;;35.00;44.13;101128.53;10461948;28;20468;-73
2023/09/11 13:34:25;;;;;;;1999.90;999.90;;;;;;;33.92;44.06;101128.94;10462832;28;20541;-73
2023/09/11 13:39:27;;;;;;;1999.90;999.90;;;;;;;34.68;42.66;101129.81;10462182;28;20128;-73
2023/09/11 13:44:29;;;;;;;1999.90;999.90;;;;;;;32.51;45.93;101122.72;10463164;28;20048;-73
2023/09/11 13:49:32;;;;;;;1999.90;999.90;;;;;;;32.47;45.97;101116.13;10462998;28;20053;-73
2023/09/11 13:54:34;;;;;;;1999.90;999.90;;;;;;;32.95;46.22;101123.47;10461457;28;20060;-73
2023/09/11 13:59:37;;;;;;;1999.90;999.90;;;;;;;33.87;42.70;101118.78;10461901;28;20053;-73
2023/09/11 14:04:39;;;;;;;1999.90;999.90;;;;;;;34.05;42.97;101118.66;10462361;28;20045;-73
2023/09/11 14:09:42;;;;;;;1999.90;999.90;;;;;;;33.37;43.42;101121.88;10462197;28;20052;-73
2023/09/11 14:14:46;;;;;;;1999.90;999.90;;;;;;;32.33;46.67;101117.31;10461319;28;20408;-73
2023/09/11 14:19:49;;;;;;;1999.90;999.90;;;;;;;31.84;47.71;101122.53;10461098;28;20060;-73
2023/09/11 14:24:52;;;;;;;1999.90;999.90;;;;;;;32.24;47.27;101114.06;10443452;28;20509;-73
2023/09/11 14:29:54;;;;;;;1999.90;999.90;;;;;;;33.25;46.15;101122.66;10459665;28;20404;-73
2023/09/11 14:34:57;;;;;;;1999.90;999.90;;;;;;;31.29;47.00;101125.84;10460613;28;20045;-73
2023/09/11 14:39:59;;;;;;;1999.90;999.90;;;;;;;30.43;49.14;101122.47;10459893;28;20053;-73
2023/09/11 14:45:02;;;;;;;1999.90;999.90;;;;;;;31.85;48.42;101122.31;10460244;28;20532;-72
2023/09/11 14:50:08;;;;;;;1999.90;999.90;;;;;;;33.24;44.31;101106.63;10460666;28;20060;-73
2023/09/11 14:55:11;;;;;;;1999.90;999.90;;;;;;;32.15;46.87;101107.31;10460496;28;20045;-72
2023/09/11 15:00:14;;;;;;;1999.90;999.90;;;;;;;30.10;49.23;101098.19;10458541;28;20052;-72
2023/09/11 15:05:17;;;;;;;1999.90;999.90;;;;;;;31.53;49.43;101107.19;10459452;28;20132;-72
2023/09/11 15:10:20;;;;;;;1999.90;999.90;;;;;;;30.00;53.89;101104.84;10459830;28;20095;-72
2023/09/11 15:15:22;;;;;;;1999.90;999.90;;;;;;;29.70;54.41;101104.41;10458754;28;20052;-72
2023/09/11 15:20:24;;;;;;;1999.90;999.90;;;;;;;31.51;51.38;101109.31;10457625;28;20102;-72
2023/09/11 15:25:27;;;;;;;1999.90;999.90;;;;;;;30.75;51.27;101104.47;10459216;28;20123;-72
2023/09/11 15:30:30;;;;;;;1999.90;999.90;;;;;;;30.52;51.91;101109.56;10458949;28;20049;-72
2023/09/11 15:35:33;;;;;;;1999.90;999.90;;;;;;;30.28;53.50;101111.03;10458098;28;20048;-72
2023/09/11 15:40:36;;;;;;;1999.90;999.90;;;;;;;28.88;54.94;101117.94;10457427;28;20053;-72
2023/09/11 15:45:39;;;;;;;1999.90;999.90;;;;;;;28.65;53.52;101122.81;10456907;28;20051;-73
2023/09/11 15:50:41;;;;;;;1999.90;999.90;;;;;;;27.97;54.15;101126.91;10456520;28;20060;-72
2023/09/11 15:55:44;;;;;;;1999.90;999.90;;;;;;;28.39;55.01;101124.28;10457428;28;20393;-72
2023/09/11 16:00:46;;;;;;;1999.90;999.90;;;;;;;28.04;55.93;101132.34;10457347;28;20053;-72
2023/09/11 16:05:49;;;;;;;1999.90;999.90;;;;;;;27.82;58.09;101141.41;10456568;28;20045;-71
2023/09/11 16:10:51;;;;;;;1999.90;999.90;;;;;;;27.37;58.31;101149.66;10456479;28;20059;-71
2023/09/11 16:15:54;;;;;;;1999.90;999.90;;;;;;;27.28;60.42;101150.78;10455636;28;20049;-71
2023/09/11 16:20:56;;;;;;;1999.90;999.90;;;;;;;27.00;61.10;101146.97;10456160;28;20057;-72
2023/09/11 16:25:59;;;;;;;1999.90;999.90;;;;;;;26.65;63.05;101148.59;10457083;28;20044;-71
2023/09/11 16:31:01;;;;;;;1999.90;999.90;;;;;;;26.93;63.22;101142.53;10456366;28;20075;-71
2023/09/11 16:36:04;;;;;;;1999.90;999.90;;;;;;;26.76;68.37;101144.59;10456777;28;20102;-72
2023/09/11 16:41:06;;;;;;;1999.90;999.90;;;;;;;26.49;71.66;101150.41;10456777;28;20053;-72
2023/09/11 16:46:10;;;;;;;1999.90;999.90;;;;;;;26.45;72.47;101138.34;10456591;28;20052;-71
2023/09/11 16:51:12;;;;;;;1999.90;999.90;;;;;;;26.47;73.36;101144.38;10455962;28;20072;-72
2023/09/11 16:56:14;;;;;;;1999.90;999.90;;;;;;;26.55;72.97;101138.09;10459325;28;20044;-71
2023/09/11 17:01:17;;;;;;;1999.90;999.90;;;;;;;26.33;73.03;101132.59;10464235;28;20414;-72
2023/09/11 17:06:19;;;;;;;1999.90;999.90;;;;;;;26.04;74.12;101128.03;10463492;28;20103;-72
2023/09/11 17:11:23;;;;;;;1999.90;999.90;;;;;;;26.10;72.46;101126.47;10464502;28;20060;-72
2023/09/11 17:16:25;;;;;;;1999.90;999.90;;;;;;;25.82;73.79;101120.81;10462938;28;20085;-72
2023/09/11 17:21:28;;;;;;;1999.90;999.90;;;;;;;25.52;74.94;101112.66;10463454;28;20505;-72
2023/09/11 17:26:31;;;;;;;1999.90;999.90;;;;;;;25.39;74.52;101115.97;10462120;28;20512;-72
2023/09/11 17:31:33;;;;;;;1999.90;999.90;;;;;;;25.59;73.24;101102.91;10462523;28;20059;-72
2023/09/11 17:36:35;;;;;;;1999.90;999.90;;;;;;;25.18;76.11;101105.84;10463549;28;20053;-72
2023/09/11 17:41:38;;;;;;;1999.90;999.90;;;;;;;25.02;78.54;101114.81;10462581;28;20580;-72
2023/09/11 17:46:41;;;;;;;1999.90;999.90;;;;;;;24.62;81.08;101114.81;10463185;28;20053;-72
2023/09/11 17:51:44;;;;;;;1999.90;999.90;;;;;;;24.51;82.31;101117.84;10461695;28;20048;-71
2023/09/11 17:56:48;;;;;;;1999.90;999.90;;;;;;;24.17;89.34;101108.19;10462625;28;20049;-71
2023/09/11 18:01:50;;;;;;;1999.90;999.90;;;;;;;24.19;86.84;101100.00;10461472;28;20049;-71
2023/09/11 18:06:52;;;;;;;1999.90;999.90;;;;;;;24.01;87.93;101097.53;10460247;28;20073;-72
2023/09/11 18:11:55;;;;;;;1999.90;999.90;;;;;;;23.81;89.09;101083.66;10462212;28;20051;-71
2023/09/11 18:16:57;;;;;;;1999.90;999.90;;;;;;;24.04;88.38;101108.72;10461616;28;20055;-71
2023/09/11 18:22:00;;;;;;;1999.90;999.90;;;;;;;24.04;87.35;101108.72;10460008;28;20502;-71
2023/09/11 18:27:02;;;;;;;1999.90;999.90;;;;;;;23.33;92.77;101124.38;10461015;28;20405;-72
2023/09/11 18:32:04;;;;;;;1999.90;999.90;;;;;;;23.38;91.59;101126.53;10460198;28;20060;-71
2023/09/11 18:37:07;;;;;;;1999.90;999.90;;;;;;;23.05;93.86;101136.25;10442933;28;20057;-71
2023/09/11 18:42:09;;;;;;;1999.90;999.90;;;;;;;23.39;90.72;101148.75;10460440;28;20071;-71
2023/09/11 18:47:13;;;;;;;1999.90;999.90;;;;;;;23.12;91.50;101153.34;10459715;28;20049;-71
2023/09/11 18:52:16;;;;;;;1999.90;999.90;;;;;;;22.98;94.50;101150.28;10460608;28;20060;-71
2023/09/11 18:57:18;;;;;;;1999.90;999.90;;;;;;;22.92;97.25;101160.75;10460455;28;20053;-71
2023/09/11 19:02:20;;;;;;;1999.90;999.90;;;;;;;23.19;92.16;101175.75;10458446;28;20051;-71
2023/09/11 19:07:23;;;;;;;1999.90;999.90;;;;;;;23.44;87.94;101170.47;10458269;28;20486;-71
2023/09/11 19:12:25;;;;;;;1999.90;999.90;;;;;;;23.15;95.51;101177.91;10459751;28;20090;-71
2023/09/11 19:17:28;;;;;;;1999.90;999.90;;;;;;;22.97;100.00;101153.09;10457578;28;20056;-71
2023/09/11 19:22:31;;;;;;;1999.90;999.90;;;;;;;22.71;100.00;101142.47;10457639;28;20087;-72
2023/09/11 19:27:36;;;;;;;1999.90;999.90;;;;;;;22.62;100.00;101168.28;10457489;28;20059;-72
2023/09/11 19:32:39;;;;;;;1999.90;999.90;;;;;;;22.63;100.00;101239.34;10458980;28;20045;-72
2023/09/11 19:37:42;;;;;;;1999.90;999.90;;;;;;;22.96;97.19;101349.00;10458207;28;20049;-72
2023/09/11 19:42:44;;;;;;;1999.90;999.90;;;;;;;22.83;100.00;101341.41;10456919;28;20405;-69
2023/09/11 19:47:46;;;;;;;1999.90;999.90;;;;;;;22.33;100.00;101293.97;10458533;28;20124;-67
2023/09/11 19:52:49;;;;;;;1999.90;999.90;;;;;;;21.81;100.00;101222.63;10458338;28;20045;-67
2023/09/11 19:57:51;;;;;;;1999.90;999.90;;;;;;;21.59;100.00;101242.53;10458140;28;20128;-67
2023/09/11 20:02:53;;;;;;;1999.90;999.90;;;;;;;21.43;100.00;101219.16;10457978;28;20048;-67
2023/09/11 20:07:56;;;;;;;1999.90;999.90;;;;;;;21.48;100.00;101223.09;10457730;28;20059;-67
2023/09/11 20:12:58;;;;;;;1999.90;999.90;;;;;;;21.56;100.00;101241.00;10456357;28;20048;-67
2023/09/11 20:18:01;;;;;;;1999.90;999.90;;;;;;;21.56;100.00;101218.84;10456622;28;20065;-69
2023/09/11 20:23:03;;;;;;;1999.90;999.90;;;;;;;21.56;100.00;101227.69;10456123;28;20072;-68
2023/09/11 20:28:06;;;;;;;1999.90;999.90;;;;;;;21.19;100.00;101265.81;10456478;28;20543;-69
2023/09/11 20:33:08;;;;;;;1999.90;999.90;;;;;;;21.12;100.00;101281.53;10456461;28;20124;-69
2023/09/11 20:38:11;;;;;;;1999.90;999.90;;;;;;;21.33;100.00;101275.13;10455838;28;20052;-69
2023/09/11 20:43:13;;;;;;;1999.90;999.90;;;;;;;21.30;100.00;101252.31;10456825;28;20049;-69
2023/09/11 20:48:15;;;;;;;1999.90;999.90;;;;;;;21.12;100.00;101272.72;10455957;28;20486;-70
2023/09/11 20:53:18;;;;;;;1999.90;999.90;;;;;;;21.09;100.00;101294.28;10456491;28;20048;-69
2023/09/11 20:58:20;;;;;;;1999.90;999.90;;;;;;;21.34;100.00;101274.16;10456669;28;20052;-69
2023/09/11 21:03:23;;;;;;;1999.90;999.90;;;;;;;21.00;100.00;101228.59;10454642;28;20049;-69
2023/09/11 21:08:26;;;;;;;1999.90;999.90;;;;;;;21.08;100.00;101220.72;10438682;28;20057;-69
2023/09/11 21:13:28;;;;;;;1999.90;999.90;;;;;;;20.75;100.00;101234.44;10455502;28;20405;-69
2023/09/11 21:18:31;;;;;;;1999.90;999.90;;;;;;;21.00;100.00;101269.38;10455643;28;20057;-69
2023/09/11 21:23:33;;;;;;;1999.90;999.90;;;;;;;21.48;100.00;101273.69;10454850;28;20045;-67
2023/09/11 21:28:36;;;;;;;1999.90;999.90;;;;;;;21.36;100.00;101242.06;10454772;28;20061;-67
2023/09/11 21:33:38;;;;;;;1999.90;999.90;;;;;;;21.06;100.00;101260.81;10455175;28;20543;-67
2023/09/11 21:38:41;;;;;;;1999.90;999.90;;;;;;;21.19;100.00;101260.50;10455742;28;20057;-67
2023/09/11 21:43:43;;;;;;;1999.90;999.90;;;;;;;21.28;100.00;101259.63;10459098;28;20045;-67
2023/09/11 21:48:46;;;;;;;1999.90;999.90;;;;;;;20.89;100.00;101256.25;10463207;28;20045;-67
2023/09/11 21:53:48;;;;;;;1999.90;999.90;;;;;;;20.80;100.00;101339.63;10462961;28;20044;-67